Patterson, CA

1:48 AM PDT on April 02, 2015 (GMT -0700)
Modesto City-County-Sham | | Change Station
CLOSE
Current Station
Airport
Location: Modesto,
Elevation: 95 ft
Nearby Weather Stations
Active Advisory: Special Statement

Elev 95 ft 37.62 °N, 120.95 °W | Updated 55 minutes ago

Clear
Clear
52 °F
Feels Like 52 °F
N
5
Wind Variable Wind from NNW

Today
High -- | Low -- °F
--% Chance of Precip.
Yesterday
High -- | Low -- °F
Precip. -- in
6:48 AM 7:28 PM
Waxing Gibbous, 96% visible
Pressure 30.07 in
Visibility 10.0 miles
Clouds Clear
Dew Point 39 °F
Humidity 61%
Rainfall 0.00 in
Snow Depth Not available.
UV 0 out of 12
Pollen 9.30 out of 12
Air Quality Not available.
Flu Activity Not available.
METAR KMOD 020753Z AUTO 34004KT 10SM CLR 11/04 A3007 RMK AO2 SLP181 T01110039 402170094

More Conditions Fewer Conditions

Pressure 30.07 in
Visibility 10.0 miles
Clouds Clear
Dew Point 39 °F
Humidity 61%
Rainfall 0.00 in
Snow Depth Not available.
UV 0 out of 12
Pollen 9.30 out of 12
Air Quality Not available.
Flu Activity Not available.
METAR KMOD 020753Z AUTO 34004KT 10SM CLR 11/04 A3007 RMK AO2 SLP181 T01110039 402170094

More Conditions Fewer Conditions

10-Day Weather Forecast

Almanac

Astronomy

Apr. 02, 2015 Rise Set
Actual Time
Civil Twilight
Nautical Twilight
Astronomical Twilight
Moon
Length of Visible Light
Length of Day
Tomorrow will be .
, % of the Moon is Illuminated

Today's Extremes

State Highs State Lows

Community

WunderPhotos

Upload Photos

1,810,208 photos uploaded!

WunderBlogs® & News

Nearby

Air Quality

  Air Quality AQ Index Pollutant
Not available.

Snow Depth

Station Depth Elevation

Earthquake Activity

City Distance Mag. Time & Date
Minimum magnitude displayed is 2.5.

Coastal Water Temperatures

Place Temperature

Stations

Nearby Weather Stations

Station Location Temp. Windchill Dew Point Humidity Wind Precip. Elev Updated Type
                   
Special Statement
Statement as of 2:45 PM PDT on April 01, 2015

... Sierra snow with valley rain likely Sunday through Tuesday...

.Impacts...
*hazardous travel likely across the mountains with chain controls
and travel delays.
*Locally heavy rain and small hail possible from thunderstorms.

.Forecast confidence...
*medium

.Timing and strength...
*first system: Saturday night through Sunday. A few inches of
snow possible above 4000 ft.
*Second system: Tuesday. This system may bring a shorter but more
intense round of precipitation.

.Weather summary...
*a long period of mostly fair and warm conditions will be coming
to an end this weekend as a series of low pressure systems moves
through northern California. The greatest impact will likely be
to the Sierra... where potentially a foot of snow could fall
along the passes over the course of a few days. Given the long
stretch of warm weather... it is recommended to be prepared for
wintry driving this weekend into early next week.